createdAt,value
2018-12-19T00:00:31.467Z,65.92
2018-12-19T00:01:31.649Z,66.16
2018-12-19T00:02:31.880Z,65.67
2018-12-19T00:03:31.963Z,66.16
2018-12-19T00:04:32.172Z,65.92
2018-12-19T00:05:32.481Z,66.41
2018-12-19T00:06:32.562Z,65.67
2018-12-19T00:07:32.755Z,65.43
2018-12-19T00:08:32.944Z,65.67
2018-12-19T00:09:33.176Z,65.92
2018-12-19T00:10:33.373Z,65.67
2018-12-19T00:11:33.541Z,65.43
2018-12-19T00:12:33.731Z,65.67
2018-12-19T00:13:33.997Z,65.67
2018-12-19T00:14:34.076Z,65.67
2018-12-19T00:15:34.202Z,65.67
2018-12-19T00:16:34.299Z,65.92
2018-12-19T00:17:34.498Z,65.43
2018-12-19T00:18:34.603Z,65.67
2018-12-19T00:19:34.810Z,66.16
2018-12-19T00:20:35.018Z,65.92
2018-12-19T00:21:35.238Z,65.67
2018-12-19T00:22:35.348Z,66.89
2018-12-19T00:23:35.560Z,66.41
2018-12-19T00:24:35.643Z,65.67
2018-12-19T00:25:35.843Z,65.92
2018-12-19T00:26:36.230Z,65.92
2018-12-19T00:27:36.177Z,65.92
2018-12-19T00:28:36.367Z,65.67
2018-12-19T00:29:36.608Z,66.16
2018-12-19T00:30:36.719Z,65.67
2018-12-19T00:31:36.920Z,65.92
2018-12-19T00:32:37.156Z,66.16
2018-12-19T00:33:37.302Z,65.43
2018-12-19T00:34:37.347Z,65.43
2018-12-19T00:35:37.553Z,65.43
2018-12-19T00:36:37.750Z,65.67
2018-12-19T00:37:38.002Z,65.92
2018-12-19T00:38:38.075Z,65.92
2018-12-19T00:39:38.292Z,65.92
2018-12-19T00:40:38.488Z,65.67
2018-12-19T00:41:38.770Z,65.67
2018-12-19T00:42:38.844Z,65.92
2018-12-19T00:43:39.076Z,65.43
2018-12-19T00:44:39.187Z,66.16
2018-12-19T00:45:39.295Z,66.41
2018-12-19T00:46:39.379Z,65.67
2018-12-19T00:47:39.580Z,65.43
2018-12-19T00:48:39.829Z,65.43
2018-12-19T00:49:39.957Z,65.43
2018-12-19T00:50:40.039Z,65.67
2018-12-19T00:51:40.251Z,65.43
2018-12-19T00:52:40.465Z,65.92
2018-12-19T00:53:40.667Z,65.43
2018-12-19T00:54:40.848Z,66.16
2018-12-19T00:55:41.083Z,65.67
2018-12-19T00:56:41.043Z,65.67
2018-12-19T00:57:41.288Z,65.43
2018-12-19T00:58:41.362Z,65.19
2018-12-19T00:59:41.622Z,65.67
2018-12-19T01:00:41.689Z,65.43
2018-12-19T01:01:41.893Z,65.43
2018-12-19T01:02:42.118Z,65.19
2018-12-19T01:03:42.212Z,64.70
2018-12-19T01:04:47.971Z,65.92
2018-12-19T01:05:42.491Z,65.67
2018-12-19T01:06:42.730Z,66.16
2018-12-19T01:07:42.918Z,65.19
2018-12-19T01:08:43.037Z,65.43
2018-12-19T01:09:43.137Z,65.67
2018-12-19T01:10:43.346Z,65.43
2018-12-19T01:11:43.562Z,65.67
2018-12-19T01:12:43.582Z,65.43
2018-12-19T01:13:43.723Z,65.43
2018-12-19T01:14:43.883Z,65.19
2018-12-19T01:15:43.976Z,65.19
2018-12-19T01:16:44.344Z,65.43
2018-12-19T01:17:44.324Z,65.92
2018-12-19T01:18:44.440Z,65.19
2018-12-19T01:19:44.549Z,65.19
2018-12-19T01:20:44.608Z,65.67
2018-12-19T01:21:44.816Z,65.43
2018-12-19T01:22:44.891Z,66.65
2018-12-19T01:23:45.076Z,65.92
2018-12-19T01:24:45.285Z,65.67
2018-12-19T01:25:45.500Z,66.89
2018-12-19T01:26:45.708Z,66.16
2018-12-19T01:27:45.914Z,65.43
2018-12-19T01:28:46.116Z,65.92
2018-12-19T01:29:46.328Z,65.67
2018-12-19T01:30:46.571Z,65.92
2018-12-19T01:31:46.638Z,65.92
2018-12-19T01:32:46.862Z,65.43
2018-12-19T01:33:47.068Z,65.67
2018-12-19T01:34:47.246Z,65.67
2018-12-19T01:35:47.469Z,65.43
2018-12-19T01:36:47.766Z,66.16
2018-12-19T01:37:47.856Z,65.43
2018-12-19T01:38:48.081Z,66.16
2018-12-19T01:39:48.141Z,65.92
2018-12-19T01:40:50.036Z,65.67
2018-12-19T01:41:48.615Z,65.92
2018-12-19T01:42:48.749Z,66.16
2018-12-19T01:43:48.874Z,65.67
2018-12-19T01:44:49.034Z,65.67
2018-12-19T01:45:49.390Z,65.92
2018-12-19T01:46:49.359Z,66.41
2018-12-19T01:47:49.431Z,66.16
2018-12-19T01:48:49.643Z,65.67
2018-12-19T01:49:49.781Z,65.67
2018-12-19T01:50:49.840Z,65.43
2018-12-19T01:51:50.062Z,65.67
2018-12-19T01:52:50.156Z,65.43
2018-12-19T01:53:50.319Z,65.43
2018-12-19T01:54:50.439Z,65.19
2018-12-19T01:55:50.612Z,65.43
2018-12-19T01:56:50.760Z,65.67
2018-12-19T01:57:50.848Z,65.43
2018-12-19T01:58:51.031Z,65.92
2018-12-19T01:59:51.344Z,65.67
2018-12-19T02:00:51.502Z,65.67
2018-12-19T02:01:51.564Z,65.67
2018-12-19T02:02:51.753Z,65.67
2018-12-19T02:03:51.882Z,65.92
2018-12-19T02:04:52.077Z,65.43
2018-12-19T02:05:52.350Z,65.43
2018-12-19T02:06:52.442Z,65.92
2018-12-19T02:07:52.524Z,65.43
2018-12-19T02:08:52.752Z,65.43
2018-12-19T02:09:52.849Z,65.43
2018-12-19T02:10:53.092Z,65.43
2018-12-19T02:11:53.160Z,65.67
2018-12-19T02:12:53.375Z,65.92
2018-12-19T02:13:53.715Z,65.67
2018-12-19T02:14:53.826Z,65.19
2018-12-19T02:15:53.907Z,65.19
2018-12-19T02:16:54.117Z,65.19
2018-12-19T02:17:54.336Z,65.67
2018-12-19T02:18:54.538Z,65.67
2018-12-19T02:19:54.797Z,65.67
2018-12-19T02:20:54.863Z,65.43
2018-12-19T02:21:55.087Z,65.19
2018-12-19T02:22:55.295Z,65.19
2018-12-19T02:23:55.523Z,65.19
2018-12-19T02:24:55.676Z,65.19
2018-12-19T02:25:55.801Z,65.67
2018-12-19T02:26:56.110Z,65.43
2018-12-19T02:27:56.223Z,65.92
2018-12-19T02:28:56.335Z,65.92
2018-12-19T02:29:56.545Z,65.19
2018-12-19T02:30:56.734Z,65.92
2018-12-19T02:31:56.980Z,65.43
2018-12-19T02:32:57.096Z,65.43
2018-12-19T02:33:57.221Z,65.43
2018-12-19T02:35:00.575Z,65.67
2018-12-19T02:35:58.033Z,65.43
2018-12-19T02:36:57.615Z,65.19
2018-12-19T02:37:57.761Z,65.92
2018-12-19T02:38:57.912Z,65.43
2018-12-19T02:39:58.036Z,65.19
2018-12-19T02:40:58.213Z,65.67
2018-12-19T02:41:58.314Z,65.19
2018-12-19T02:42:58.407Z,64.94
2018-12-19T02:43:58.622Z,65.19
2018-12-19T02:44:58.696Z,65.43
2018-12-19T02:45:58.884Z,64.94
2018-12-19T02:46:59.092Z,64.70
2018-12-19T02:47:59.305Z,64.94
2018-12-19T02:48:59.536Z,65.19
2018-12-19T02:49:59.627Z,65.43
2018-12-19T02:50:59.865Z,65.19
2018-12-19T02:51:59.953Z,65.19
2018-12-19T02:53:00.181Z,64.94
2018-12-19T02:54:00.324Z,65.67
2018-12-19T02:55:00.385Z,64.21
2018-12-19T02:56:00.624Z,62.99
2018-12-19T02:57:00.695Z,63.23
2018-12-19T02:58:00.899Z,64.70
2018-12-19T02:59:01.069Z,65.19
2018-12-19T03:00:01.181Z,65.19
2018-12-19T03:01:01.382Z,65.19
2018-12-19T03:02:01.582Z,65.19
2018-12-19T03:03:01.700Z,62.74
2018-12-19T03:04:01.787Z,62.74
2018-12-19T03:05:01.969Z,64.70
2018-12-19T03:06:02.215Z,65.19
2018-12-19T03:07:02.346Z,64.94
2018-12-19T03:08:02.419Z,62.99
2018-12-19T03:09:02.686Z,62.99
2018-12-19T03:10:02.844Z,63.23
2018-12-19T03:11:02.929Z,62.99
2018-12-19T03:12:03.184Z,63.48
2018-12-19T03:13:03.277Z,62.74
2018-12-19T03:14:03.529Z,62.99
2018-12-19T03:15:03.616Z,64.70
2018-12-19T03:16:03.827Z,65.19
2018-12-19T03:17:04.057Z,65.19
2018-12-19T03:18:04.239Z,64.94
2018-12-19T03:19:04.443Z,63.23
2018-12-19T03:20:04.840Z,63.48
2018-12-19T03:21:04.773Z,62.74
2018-12-19T03:22:05.006Z,63.23
2018-12-19T03:23:05.112Z,63.72
2018-12-19T03:24:05.193Z,62.99
2018-12-19T03:25:05.401Z,62.99
2018-12-19T03:26:05.618Z,63.72
2018-12-19T03:27:05.845Z,62.74
2018-12-19T03:28:05.920Z,63.48
2018-12-19T03:29:06.116Z,63.48
2018-12-19T03:30:06.434Z,63.72
2018-12-19T03:31:06.540Z,63.48
2018-12-19T03:32:06.625Z,63.48
2018-12-19T03:33:06.936Z,62.99
2018-12-19T03:34:07.117Z,62.74
2018-12-19T03:35:07.196Z,63.23
2018-12-19T03:36:07.456Z,62.99
2018-12-19T03:37:07.568Z,63.48
2018-12-19T03:38:07.646Z,62.99
2018-12-19T03:39:07.856Z,62.99
2018-12-19T03:40:08.079Z,63.23
2018-12-19T03:41:08.154Z,63.23
2018-12-19T03:42:08.414Z,63.23
2018-12-19T03:43:08.476Z,63.23
2018-12-19T03:44:08.660Z,63.72
2018-12-19T03:45:08.849Z,62.99
2018-12-19T03:46:09.106Z,63.96
2018-12-19T03:47:09.221Z,63.23
2018-12-19T03:48:09.282Z,63.23
2018-12-19T03:49:09.461Z,64.21
2018-12-19T03:50:09.648Z,63.72
2018-12-19T03:51:09.792Z,63.48
2018-12-19T03:52:09.942Z,65.19
2018-12-19T03:53:10.037Z,63.72
2018-12-19T03:54:10.125Z,63.23
2018-12-19T03:55:10.332Z,63.72
2018-12-19T03:56:10.547Z,63.72
2018-12-19T03:57:11.580Z,63.96
2018-12-19T03:58:10.950Z,63.72
2018-12-19T03:59:11.032Z,63.23
2018-12-19T04:00:11.336Z,63.48
2018-12-19T04:01:11.452Z,64.21
2018-12-19T04:02:11.566Z,64.45
2018-12-19T04:03:11.650Z,64.21
2018-12-19T04:04:11.867Z,64.21
2018-12-19T04:05:12.110Z,63.23
2018-12-19T04:06:12.193Z,63.48
2018-12-19T04:07:12.495Z,63.72
2018-12-19T04:08:12.577Z,63.48
2018-12-19T04:09:12.771Z,63.48
2018-12-19T04:10:12.985Z,67.38
2018-12-19T04:11:13.228Z,65.19
2018-12-19T04:12:13.308Z,63.48
2018-12-19T04:13:13.538Z,63.48
2018-12-19T04:14:13.635Z,63.96
2018-12-19T04:15:13.850Z,65.43
2018-12-19T04:16:13.925Z,64.21
2018-12-19T04:17:14.087Z,65.67
2018-12-19T04:18:14.269Z,66.41
2018-12-19T04:19:14.474Z,64.21
2018-12-19T04:20:14.661Z,64.45
2018-12-19T04:21:14.790Z,63.72
2018-12-19T04:22:14.876Z,65.43
2018-12-19T04:23:15.153Z,65.19
2018-12-19T04:24:15.245Z,64.45
2018-12-19T04:25:15.364Z,63.48
2018-12-19T04:26:15.495Z,64.94
2018-12-19T04:27:15.581Z,63.96
2018-12-19T04:28:15.778Z,63.72
2018-12-19T04:29:16.008Z,65.19
2018-12-19T04:30:16.081Z,64.21
2018-12-19T04:31:16.256Z,63.48
2018-12-19T04:32:16.395Z,63.23
2018-12-19T04:33:16.620Z,63.23
2018-12-19T04:34:16.726Z,63.48
2018-12-19T04:35:16.817Z,63.96
2018-12-19T04:36:17.035Z,63.48
2018-12-19T04:37:17.164Z,63.23
2018-12-19T04:38:17.238Z,63.48
2018-12-19T04:39:17.524Z,63.72
2018-12-19T04:40:17.612Z,63.72
2018-12-19T04:41:17.733Z,63.72
2018-12-19T04:42:17.800Z,63.72
2018-12-19T04:43:18.007Z,64.45
2018-12-19T04:44:18.183Z,64.70
2018-12-19T04:45:18.440Z,64.70
2018-12-19T04:46:18.635Z,63.96
2018-12-19T04:47:18.808Z,64.94
2018-12-19T04:48:18.871Z,64.45
2018-12-19T04:49:19.026Z,65.43
2018-12-19T04:50:19.251Z,64.70
2018-12-19T04:51:19.333Z,64.94
2018-12-19T04:52:19.513Z,64.94
2018-12-19T04:53:19.724Z,64.70
2018-12-19T04:54:19.947Z,64.94
2018-12-19T04:55:20.062Z,66.16
2018-12-19T04:56:20.131Z,64.45
2018-12-19T04:57:20.687Z,64.21
2018-12-19T04:58:22.331Z,64.45
2018-12-19T04:59:32.818Z,64.94
2018-12-19T05:00:33.321Z,64.45
2018-12-19T05:01:20.932Z,64.45
2018-12-19T05:02:22.686Z,63.96
2018-12-19T05:03:21.193Z,64.21
2018-12-19T05:04:21.543Z,64.94
2018-12-19T05:05:21.349Z,64.70
2018-12-19T05:06:21.533Z,64.70
2018-12-19T05:07:21.790Z,64.70
2018-12-19T05:08:22.042Z,63.96
2018-12-19T05:09:22.110Z,65.19
2018-12-19T05:10:22.221Z,64.45
2018-12-19T05:11:22.642Z,64.45
2018-12-19T05:12:25.394Z,65.92
2018-12-19T05:13:22.622Z,64.94
2018-12-19T05:14:22.720Z,65.67
2018-12-19T05:15:22.896Z,63.96
2018-12-19T05:16:23.140Z,64.70
2018-12-19T05:17:23.116Z,63.96
2018-12-19T05:18:23.328Z,64.94
2018-12-19T05:19:23.391Z,64.70
2018-12-19T05:20:23.792Z,64.94
2018-12-19T05:21:23.805Z,63.96
2018-12-19T05:22:23.901Z,65.19
2018-12-19T05:23:24.118Z,64.70
2018-12-19T05:24:24.164Z,64.94
2018-12-19T05:25:24.630Z,64.94
2018-12-19T05:26:24.537Z,64.94
2018-12-19T05:27:25.584Z,64.70
2018-12-19T05:28:24.871Z,63.72
2018-12-19T05:29:24.976Z,64.70
2018-12-19T05:30:25.579Z,64.94
2018-12-19T05:31:25.227Z,64.70
2018-12-19T05:32:29.078Z,64.94
2018-12-19T05:33:25.466Z,65.43
2018-12-19T05:34:25.644Z,65.19
2018-12-19T05:35:25.708Z,64.45
2018-12-19T05:36:26.518Z,64.45
2018-12-19T05:37:26.044Z,64.21
2018-12-19T05:38:26.246Z,65.19
2018-12-19T05:39:26.472Z,65.92
2018-12-19T05:40:26.785Z,65.19
2018-12-19T05:41:26.909Z,64.94
2018-12-19T05:42:27.064Z,64.94
2018-12-19T05:43:27.286Z,64.21
2018-12-19T05:44:27.514Z,64.45
2018-12-19T05:45:30.112Z,64.21
2018-12-19T05:46:27.529Z,65.19
2018-12-19T05:47:27.880Z,64.94
2018-12-19T05:48:28.184Z,65.43
2018-12-19T05:49:28.644Z,63.96
2018-12-19T05:50:28.379Z,65.67
2018-12-19T05:51:28.506Z,65.67
2018-12-19T05:52:28.493Z,68.12
2018-12-19T05:53:28.665Z,64.94
2018-12-19T05:54:28.762Z,65.43
2018-12-19T05:55:31.396Z,65.43
2018-12-19T05:56:29.598Z,64.45
2018-12-19T05:57:29.196Z,64.21
2018-12-19T05:58:29.323Z,65.43
2018-12-19T05:59:29.511Z,64.70
2018-12-19T06:00:30.590Z,65.43
2018-12-19T06:01:29.866Z,65.43
2018-12-19T06:02:30.045Z,66.16
2018-12-19T06:03:30.354Z,64.94
2018-12-19T06:04:30.528Z,66.41
2018-12-19T06:05:30.536Z,71.04
2018-12-19T06:06:30.616Z,67.38
2018-12-19T06:07:30.836Z,66.41
2018-12-19T06:08:31.129Z,67.38
2018-12-19T06:09:31.224Z,66.41
2018-12-19T06:10:31.366Z,69.34
2018-12-19T06:11:31.408Z,70.31
2018-12-19T06:12:31.770Z,68.36
2018-12-19T06:13:31.825Z,65.67
2018-12-19T06:14:32.072Z,66.89
2018-12-19T06:15:32.160Z,65.19
2018-12-19T06:16:32.460Z,65.43
2018-12-19T06:17:32.414Z,66.41
2018-12-19T06:18:32.628Z,65.92
2018-12-19T06:19:32.737Z,65.92
2018-12-19T06:20:33.094Z,65.19
2018-12-19T06:21:33.071Z,65.19
2018-12-19T06:22:33.162Z,65.43
2018-12-19T06:23:33.462Z,65.43
2018-12-19T06:24:33.533Z,64.94
2018-12-19T06:25:33.595Z,66.65
2018-12-19T06:26:33.793Z,65.92
2018-12-19T06:27:33.963Z,65.43
2018-12-19T06:28:34.162Z,65.19
2018-12-19T06:29:34.365Z,64.45
2018-12-19T06:30:34.564Z,64.70
2018-12-19T06:31:34.759Z,64.94
2018-12-19T06:32:34.989Z,65.92
2018-12-19T06:33:35.051Z,65.92
2018-12-19T06:34:35.234Z,64.94
2018-12-19T06:35:35.447Z,65.67
2018-12-19T06:36:35.692Z,65.19
2018-12-19T06:37:35.853Z,64.45
2018-12-19T06:38:35.928Z,64.70
2018-12-19T06:39:36.108Z,64.70
2018-12-19T06:40:36.322Z,64.94
2018-12-19T06:41:36.540Z,65.67
2018-12-19T06:42:36.649Z,65.43
2018-12-19T06:43:36.795Z,65.67
2018-12-19T06:44:36.906Z,71.78
2018-12-19T06:45:37.018Z,65.19
2018-12-19T06:46:37.098Z,64.70
2018-12-19T06:47:37.269Z,66.16
2018-12-19T06:48:37.501Z,64.94
2018-12-19T06:49:37.720Z,63.96
2018-12-19T06:50:37.853Z,63.96
2018-12-19T06:51:37.924Z,63.72
2018-12-19T06:52:38.082Z,63.96
2018-12-19T06:53:38.179Z,63.96
2018-12-19T06:54:38.234Z,63.72
2018-12-19T06:55:38.433Z,63.48
2018-12-19T06:56:38.646Z,63.96
2018-12-19T06:57:38.904Z,63.72
2018-12-19T06:58:38.978Z,63.23
2018-12-19T06:59:39.211Z,62.99
2018-12-19T07:00:39.280Z,63.48
2018-12-19T07:01:39.535Z,63.72
2018-12-19T07:02:39.699Z,63.23
2018-12-19T07:03:39.880Z,66.89
2018-12-19T07:04:39.966Z,63.48
2018-12-19T07:05:41.616Z,63.48
2018-12-19T07:06:40.233Z,63.48
2018-12-19T07:07:40.271Z,62.74
2018-12-19T07:08:41.506Z,63.48
2018-12-19T07:09:40.768Z,63.48
2018-12-19T07:10:40.902Z,62.99
2018-12-19T07:11:41.167Z,63.48
2018-12-19T07:12:41.148Z,63.72
2018-12-19T07:13:41.342Z,63.72
2018-12-19T07:14:41.509Z,63.48
2018-12-19T07:15:41.888Z,64.21
2018-12-19T07:16:43.614Z,63.72
2018-12-19T07:17:41.987Z,63.23
2018-12-19T07:18:42.246Z,63.48
2018-12-19T07:19:42.402Z,63.48
2018-12-19T07:20:42.640Z,63.48
2018-12-19T07:21:42.472Z,63.48
2018-12-19T07:22:42.698Z,65.43
2018-12-19T07:23:42.908Z,63.96
2018-12-19T07:24:43.020Z,63.48
2018-12-19T07:25:43.067Z,63.72
2018-12-19T07:26:43.313Z,63.72
2018-12-19T07:27:44.226Z,63.96
2018-12-19T07:28:43.576Z,63.48
2018-12-19T07:29:44.748Z,63.48
2018-12-19T07:30:44.109Z,63.96
2018-12-19T07:31:44.338Z,65.67
2018-12-19T07:32:44.151Z,63.72
2018-12-19T07:33:44.296Z,63.48
2018-12-19T07:34:44.456Z,63.72
2018-12-19T07:35:44.477Z,63.72
2018-12-19T07:36:45.009Z,65.67
2018-12-19T07:37:45.186Z,63.96
2018-12-19T07:38:45.571Z,63.23
2018-12-19T07:39:45.439Z,63.72
2018-12-19T07:40:46.006Z,64.70
2018-12-19T07:41:45.974Z,63.48
2018-12-19T07:42:46.021Z,63.96
2018-12-19T07:43:46.310Z,64.21
2018-12-19T07:44:46.228Z,63.96
2018-12-19T07:45:46.424Z,63.96
2018-12-19T07:46:46.511Z,63.96
2018-12-19T07:47:46.771Z,64.45
2018-12-19T07:48:46.840Z,63.96
2018-12-19T07:49:47.063Z,64.21
2018-12-19T07:50:47.272Z,63.96
2018-12-19T07:51:47.527Z,63.96
2018-12-19T07:52:47.599Z,63.96
2018-12-19T07:53:47.817Z,63.96
2018-12-19T07:54:48.039Z,64.94
2018-12-19T07:55:48.326Z,65.43
2018-12-19T07:56:48.294Z,64.70
2018-12-19T07:57:48.529Z,64.94
2018-12-19T07:58:48.658Z,63.48
2018-12-19T07:59:48.817Z,64.70
2018-12-19T08:00:49.027Z,64.45
2018-12-19T08:01:49.224Z,64.21
2018-12-19T08:02:49.629Z,68.12
2018-12-19T08:03:49.821Z,64.21
2018-12-19T08:04:49.961Z,64.45
2018-12-19T08:05:50.346Z,64.70
2018-12-19T08:06:50.067Z,64.21
2018-12-19T08:07:50.266Z,64.45
2018-12-19T08:08:50.392Z,65.67
2018-12-19T08:09:50.599Z,66.16
2018-12-19T08:10:52.340Z,65.19
2018-12-19T08:11:50.813Z,64.70
2018-12-19T08:12:51.546Z,65.19
2018-12-19T08:13:51.000Z,64.94
2018-12-19T08:14:51.166Z,65.19
2018-12-19T08:15:51.379Z,64.94
2018-12-19T08:16:51.568Z,64.94
2018-12-19T08:17:53.652Z,64.70
2018-12-19T08:18:51.885Z,63.96
2018-12-19T08:19:51.963Z,64.70
2018-12-19T08:20:52.234Z,64.70
2018-12-19T08:21:52.284Z,66.16
2018-12-19T08:22:52.518Z,64.70
2018-12-19T08:23:52.631Z,63.96
2018-12-19T08:24:52.775Z,63.96
2018-12-19T08:25:52.838Z,64.45
2018-12-19T08:26:53.036Z,65.19
2018-12-19T08:27:53.203Z,63.96
2018-12-19T08:28:53.445Z,63.96
2018-12-19T08:29:53.868Z,63.48
2018-12-19T08:30:53.761Z,65.67
2018-12-19T08:31:53.855Z,63.23
2018-12-19T08:32:53.956Z,63.23
2018-12-19T08:33:54.177Z,62.99
2018-12-19T08:34:54.277Z,66.89
2018-12-19T08:35:57.065Z,63.48
2018-12-19T08:37:02.111Z,62.99
2018-12-19T08:37:54.915Z,63.72
2018-12-19T08:38:57.715Z,63.48
2018-12-19T08:39:55.302Z,63.23
2018-12-19T08:40:58.808Z,62.99
2018-12-19T08:41:57.145Z,63.48
2018-12-19T08:42:55.642Z,63.23
2018-12-19T08:43:55.802Z,63.72
2018-12-19T08:44:55.916Z,63.96
2018-12-19T08:45:56.375Z,63.48
2018-12-19T08:46:56.828Z,63.72
2018-12-19T08:47:56.369Z,63.48
2018-12-19T08:48:56.434Z,63.23
2018-12-19T08:49:56.613Z,63.96
2018-12-19T08:50:56.844Z,62.99
2018-12-19T08:51:57.095Z,63.48
2018-12-19T08:52:57.169Z,62.74
2018-12-19T08:53:57.612Z,63.72
2018-12-19T08:54:57.597Z,62.99
2018-12-19T08:55:57.760Z,62.99
2018-12-19T08:56:58.118Z,62.74
2018-12-19T08:57:58.204Z,62.99
2018-12-19T08:58:58.070Z,63.23
2018-12-19T08:59:58.390Z,62.99
2018-12-19T09:00:58.643Z,63.23
2018-12-19T09:01:58.663Z,63.72
2018-12-19T09:02:58.779Z,63.48
2018-12-19T09:03:58.836Z,63.23
2018-12-19T09:04:59.199Z,63.48
2018-12-19T09:05:59.253Z,63.23
2018-12-19T09:06:59.483Z,63.48
2018-12-19T09:07:59.642Z,63.23
2018-12-19T09:08:59.795Z,63.23
2018-12-19T09:09:59.856Z,63.23
2018-12-19T09:11:05.610Z,63.48
2018-12-19T09:12:00.214Z,62.74
2018-12-19T09:13:00.451Z,63.23
2018-12-19T09:14:00.741Z,62.99
2018-12-19T09:15:00.791Z,63.23
2018-12-19T09:16:00.974Z,63.23
2018-12-19T09:17:01.809Z,62.74
2018-12-19T09:18:01.265Z,62.74
2018-12-19T09:19:03.122Z,63.23
2018-12-19T09:20:01.593Z,62.99
2018-12-19T09:21:01.663Z,62.99
2018-12-19T09:22:02.022Z,63.48
2018-12-19T09:23:01.987Z,63.23
2018-12-19T09:24:02.426Z,62.74
2018-12-19T09:25:02.413Z,63.48
2018-12-19T09:26:02.862Z,63.48
2018-12-19T09:27:03.364Z,62.74
2018-12-19T09:28:03.049Z,62.50
2018-12-19T09:29:05.161Z,62.26
2018-12-19T09:30:03.217Z,62.99
2018-12-19T09:31:03.289Z,67.14
2018-12-19T09:32:03.514Z,62.50
2018-12-19T09:33:04.645Z,62.74
2018-12-19T09:34:03.956Z,63.23
2018-12-19T09:35:03.976Z,62.50
2018-12-19T09:36:04.120Z,62.50
2018-12-19T09:37:04.214Z,62.74
2018-12-19T09:38:04.622Z,62.99
2018-12-19T09:39:04.674Z,63.72
2018-12-19T09:40:04.919Z,63.23
2018-12-19T09:41:04.941Z,62.99
2018-12-19T09:42:05.096Z,63.48
2018-12-19T09:43:05.185Z,64.45
2018-12-19T09:44:05.249Z,63.48
2018-12-19T09:45:05.476Z,63.72
2018-12-19T09:46:05.594Z,63.72
2018-12-19T09:47:05.789Z,64.21
2018-12-19T09:48:05.893Z,64.45
2018-12-19T09:49:12.184Z,65.92
2018-12-19T09:50:06.271Z,64.70
2018-12-19T09:51:06.294Z,63.96
2018-12-19T09:52:06.622Z,63.48
2018-12-19T09:53:06.741Z,63.72
2018-12-19T09:54:06.855Z,63.96
2018-12-19T09:55:07.039Z,64.45
2018-12-19T09:56:07.564Z,63.23
2018-12-19T09:57:07.322Z,64.45
2018-12-19T09:58:07.441Z,63.96
2018-12-19T09:59:08.041Z,63.72
2018-12-19T10:00:07.921Z,64.45
2018-12-19T10:01:08.972Z,63.72
2018-12-19T10:02:08.096Z,63.48
2018-12-19T10:03:08.358Z,62.99
2018-12-19T10:04:08.508Z,63.23
2018-12-19T10:05:08.687Z,62.99
2018-12-19T10:06:09.264Z,62.50
2018-12-19T10:07:09.272Z,62.50
2018-12-19T10:08:09.464Z,63.23
2018-12-19T10:09:14.847Z,63.23
2018-12-19T10:10:10.590Z,63.72
2018-12-19T10:11:09.943Z,62.50
2018-12-19T10:12:09.844Z,62.99
2018-12-19T10:13:10.087Z,62.74
2018-12-19T10:14:10.795Z,62.50
2018-12-19T10:15:10.433Z,64.21
2018-12-19T10:16:10.462Z,63.72
2018-12-19T10:17:10.519Z,63.96
2018-12-19T10:18:10.748Z,64.21
2018-12-19T10:19:11.177Z,63.96
2018-12-19T10:20:11.202Z,62.74
2018-12-19T10:21:11.235Z,62.50
2018-12-19T10:22:11.414Z,63.96
2018-12-19T10:23:11.554Z,62.99
2018-12-19T10:24:11.849Z,63.96
2018-12-19T10:25:11.791Z,63.48
2018-12-19T10:26:11.983Z,63.23
2018-12-19T10:27:12.278Z,64.70
2018-12-19T10:28:12.365Z,62.99
2018-12-19T10:29:12.561Z,63.23
2018-12-19T10:30:12.762Z,63.23
2018-12-19T10:31:13.008Z,63.23
2018-12-19T10:32:13.135Z,63.48
2018-12-19T10:33:14.846Z,63.96
2018-12-19T10:34:13.345Z,63.72
2018-12-19T10:35:13.439Z,62.74
2018-12-19T10:36:13.576Z,63.23
2018-12-19T10:37:13.679Z,64.21
2018-12-19T10:38:13.756Z,63.48
2018-12-19T10:39:13.966Z,62.99
2018-12-19T10:40:14.054Z,63.23
2018-12-19T10:41:14.268Z,64.21
2018-12-19T10:42:14.548Z,63.23
2018-12-19T10:43:14.676Z,62.99
2018-12-19T10:44:14.735Z,64.70
2018-12-19T10:45:14.924Z,63.23
2018-12-19T10:46:15.230Z,63.23
2018-12-19T10:47:15.320Z,63.72
2018-12-19T10:48:15.522Z,63.72
2018-12-19T10:49:15.797Z,63.96
2018-12-19T10:50:18.102Z,63.96
2018-12-19T10:51:15.973Z,63.48
2018-12-19T10:52:16.218Z,61.77
2018-12-19T10:53:16.392Z,60.06
2018-12-19T10:54:16.725Z,61.28
2018-12-19T10:55:16.896Z,61.77
2018-12-19T10:56:19.366Z,61.77
2018-12-19T10:57:17.213Z,61.77
2018-12-19T10:58:17.100Z,63.72
2018-12-19T10:59:17.339Z,66.89
2018-12-19T11:00:17.401Z,62.26
2018-12-19T11:01:17.564Z,62.50
2018-12-19T11:02:18.554Z,61.28
2018-12-19T11:03:17.856Z,61.28
2018-12-19T11:04:22.604Z,61.52
2018-12-19T11:05:18.114Z,62.01
2018-12-19T11:06:18.319Z,61.77
2018-12-19T11:07:18.549Z,62.01
2018-12-19T11:08:20.196Z,61.77
2018-12-19T11:09:18.894Z,62.50
2018-12-19T11:10:18.999Z,62.50
2018-12-19T11:11:19.172Z,62.99
2018-12-19T11:12:19.530Z,62.26
2018-12-19T11:13:19.477Z,61.77
2018-12-19T11:14:19.750Z,62.01
2018-12-19T11:15:19.846Z,62.01
2018-12-19T11:16:19.920Z,62.26
2018-12-19T11:17:20.233Z,61.77
2018-12-19T11:18:20.307Z,65.19
2018-12-19T11:19:20.482Z,65.43
2018-12-19T11:20:20.695Z,65.19
2018-12-19T11:21:20.937Z,62.01
2018-12-19T11:22:21.040Z,67.63
2018-12-19T11:23:21.112Z,66.16
2018-12-19T11:24:21.372Z,64.94
2018-12-19T11:25:21.482Z,64.94
2018-12-19T11:26:21.541Z,61.04
2018-12-19T11:27:21.769Z,60.55
2018-12-19T11:28:21.962Z,61.77
2018-12-19T11:29:22.159Z,62.99
2018-12-19T11:30:22.335Z,63.23
2018-12-19T11:31:22.673Z,60.30
2018-12-19T11:32:22.726Z,62.01
2018-12-19T11:33:22.993Z,62.01
2018-12-19T11:34:23.045Z,62.26
2018-12-19T11:35:23.228Z,62.50
2018-12-19T11:36:23.372Z,62.99
2018-12-19T11:37:23.483Z,62.99
2018-12-19T11:38:23.612Z,62.74
2018-12-19T11:39:23.712Z,62.74
2018-12-19T11:40:23.838Z,69.34
2018-12-19T11:41:23.912Z,63.72
2018-12-19T11:42:24.154Z,66.41
2018-12-19T11:43:24.292Z,63.23
2018-12-19T11:44:24.370Z,63.23
2018-12-19T11:45:25.012Z,64.45
2018-12-19T11:46:24.734Z,63.96
2018-12-19T11:47:25.064Z,63.72
2018-12-19T11:48:25.112Z,63.72
2018-12-19T11:49:25.458Z,63.72
2018-12-19T11:50:25.489Z,62.01
2018-12-19T11:51:25.646Z,62.74
2018-12-19T11:52:25.770Z,62.74
2018-12-19T11:53:25.899Z,62.74
2018-12-19T11:54:26.009Z,62.50
2018-12-19T11:55:26.145Z,62.50
2018-12-19T11:56:26.271Z,62.01
2018-12-19T11:57:26.323Z,62.50
2018-12-19T11:58:26.435Z,73.49
2018-12-19T11:59:26.689Z,62.01
2018-12-19T12:00:26.775Z,62.01
2018-12-19T12:01:26.994Z,62.26
2018-12-19T12:02:27.075Z,60.55
2018-12-19T12:03:27.250Z,63.23
2018-12-19T12:04:27.526Z,63.48
2018-12-19T12:05:27.626Z,62.26
2018-12-19T12:06:27.868Z,62.99
2018-12-19T12:07:27.939Z,61.28
2018-12-19T12:08:28.156Z,61.77
2018-12-19T12:09:28.252Z,62.01
2018-12-19T12:10:28.447Z,62.50
2018-12-19T12:11:28.621Z,62.50
2018-12-19T12:12:28.800Z,62.26
2018-12-19T12:13:29.016Z,63.23
2018-12-19T12:14:29.236Z,62.74
2018-12-19T12:15:29.300Z,62.74
2018-12-19T12:16:29.481Z,61.77
2018-12-19T12:17:29.679Z,62.01
2018-12-19T12:18:29.876Z,63.96
2018-12-19T12:19:30.080Z,62.74
2018-12-19T12:20:30.283Z,61.28
2018-12-19T12:21:30.373Z,62.99
2018-12-19T12:22:30.621Z,61.77
2018-12-19T12:23:30.677Z,62.01
2018-12-19T12:24:30.914Z,62.01
2018-12-19T12:25:30.985Z,62.74
2018-12-19T12:26:31.173Z,62.50
2018-12-19T12:27:31.366Z,63.48
2018-12-19T12:28:31.580Z,63.48
2018-12-19T12:29:31.816Z,62.50
2018-12-19T12:30:31.935Z,62.01
2018-12-19T12:31:32.017Z,62.50
2018-12-19T12:32:32.273Z,61.28
2018-12-19T12:33:32.389Z,61.04
2018-12-19T12:34:32.486Z,60.55
2018-12-19T12:35:32.634Z,61.28
2018-12-19T12:36:32.767Z,60.79
2018-12-19T12:37:32.845Z,60.79
2018-12-19T12:38:34.176Z,61.52
2018-12-19T12:39:33.325Z,71.04
2018-12-19T12:40:33.433Z,62.99
2018-12-19T12:41:33.600Z,61.52
2018-12-19T12:42:33.752Z,62.01
2018-12-19T12:43:33.890Z,62.99
2018-12-19T12:44:34.023Z,62.99
2018-12-19T12:45:34.110Z,63.23
2018-12-19T12:46:34.319Z,64.21
2018-12-19T12:47:34.520Z,64.70
2018-12-19T12:48:34.726Z,62.50
2018-12-19T12:49:34.882Z,63.23
2018-12-19T12:50:35.087Z,62.74
2018-12-19T12:51:35.368Z,64.94
2018-12-19T12:52:35.476Z,63.96
2018-12-19T12:53:35.550Z,64.45
2018-12-19T12:54:35.743Z,62.50